Time;durP1;ratioP1;P1;durP2;ratioP2;P2;SDS_P1;SDS_P2;PMS_P1;PMS_P2;Temp;Humidity;BMP_temperature;BMP_pressure;BME280_temperature;BME280_humidity;BME280_pressure;Samples;Min_cycle;Max_cycle;Signal;HPM_P1;HPM_P2
2021/03/14 00:00:25;;;;;;;8.50;7.70;;;18.40;51.00;;;;;;5069951;28;20523;-37
2021/03/14 00:02:56;;;;;;;7.73;7.07;;;18.30;50.00;;;;;;5076099;28;20513;-38
2021/03/14 00:05:27;;;;;;;7.90;7.30;;;18.30;50.10;;;;;;5076635;28;20447;-38
2021/03/14 00:07:58;;;;;;;8.40;7.70;;;18.20;48.60;;;;;;5067231;28;20796;-39
2021/03/14 00:10:28;;;;;;;7.80;7.30;;;18.10;47.80;;;;;;5077129;28;20477;-38
2021/03/14 00:12:59;;;;;;;7.43;6.77;;;18.10;47.30;;;;;;5070298;28;20460;-38
2021/03/14 00:15:29;;;;;;;8.17;7.47;;;18.10;47.60;;;;;;5069850;28;20433;-39
2021/03/14 00:18:10;;;;;;;7.90;7.20;;;18.00;48.60;;;;;;5075731;28;20514;-39
2021/03/14 00:20:41;;;;;;;7.50;6.90;;;18.10;49.20;;;;;;5084024;28;20465;-39
2021/03/14 00:23:12;;;;;;;8.90;8.20;;;17.90;48.90;;;;;;5082103;28;20581;-39
2021/03/14 00:25:43;;;;;;;7.80;7.10;;;17.90;47.90;;;;;;5079576;28;20443;-39
2021/03/14 00:28:16;;;;;;;8.70;8.00;;;17.80;48.00;;;;;;5074564;28;20452;-39
2021/03/14 00:30:47;;;;;;;8.43;7.67;;;17.80;49.70;;;;;;5063921;28;20545;-39
2021/03/14 00:33:17;;;;;;;9.57;7.90;;;17.70;50.00;;;;;;5073704;28;20456;-39
2021/03/14 00:35:47;;;;;;;8.63;7.90;;;17.80;49.80;;;;;;5064701;28;20461;-40
2021/03/14 00:38:19;;;;;;;9.47;8.57;;;17.70;49.80;;;;;;5075156;28;20459;-38
2021/03/14 00:40:49;;;;;;;9.00;7.67;;;17.60;48.40;;;;;;5069543;28;20453;-39
2021/03/14 00:43:19;;;;;;;8.63;7.83;;;17.50;48.10;;;;;;5065186;28;20452;-40
2021/03/14 00:45:49;;;;;;;9.27;8.40;;;17.40;48.90;;;;;;5072640;28;20448;-43
2021/03/14 00:48:31;;;;;;;9.13;7.90;;;17.30;49.30;;;;;;5073369;28;20520;-43
2021/03/14 00:51:01;;;;;;;8.20;7.53;;;17.10;48.80;;;;;;5072095;28;20485;-42
2021/03/14 00:53:32;;;;;;;7.97;7.17;;;17.00;48.60;;;;;;5079821;28;20464;-44
2021/03/14 00:56:02;;;;;;;7.93;7.23;;;16.80;49.60;;;;;;5065806;28;20446;-45
2021/03/14 00:58:32;;;;;;;8.23;7.43;;;16.60;48.60;;;;;;5063602;28;20428;-42
2021/03/14 01:01:03;;;;;;;10.10;9.10;;;16.50;49.30;;;;;;5070378;28;20458;-45
2021/03/14 01:03:34;;;;;;;10.27;9.40;;;16.40;50.50;;;;;;5067894;28;20463;-46
2021/03/14 01:06:04;;;;;;;10.57;9.67;;;16.30;51.60;;;;;;5071599;28;20445;-47
2021/03/14 01:08:36;;;;;;;11.50;10.50;;;16.20;52.20;;;;;;5063256;28;20492;-41
2021/03/14 01:11:06;;;;;;;11.83;10.87;;;16.10;52.90;;;;;;5077021;28;20485;-48
2021/03/14 01:13:36;;;;;;;13.30;12.10;;;16.10;53.70;;;;;;5066098;28;20459;-44
2021/03/14 01:16:06;;;;;;;12.73;11.63;;;16.10;54.60;;;;;;5063897;28;20449;-44
2021/03/14 01:18:52;;;;;;;13.33;12.13;;;15.90;55.70;;;;;;5063411;28;20498;-47
2021/03/14 01:21:22;;;;;;;13.70;12.40;;;15.80;56.50;;;;;;5069456;28;20449;-44
2021/03/14 01:23:56;;;;;;;12.60;11.43;;;15.70;56.50;;;;;;5072573;28;20838;-43
2021/03/14 01:26:27;;;;;;;14.10;12.83;;;15.70;56.80;;;;;;5069108;28;20434;-45
2021/03/14 01:28:57;;;;;;;13.23;12.10;;;15.60;57.30;;;;;;5072755;28;20517;-42
2021/03/14 01:31:27;;;;;;;13.23;12.00;;;15.60;57.90;;;;;;5063862;28;20560;-41
2021/03/14 01:33:57;;;;;;;13.67;12.30;;;15.50;57.90;;;;;;5080976;28;20485;-41
2021/03/14 01:36:27;;;;;;;13.10;11.70;;;15.50;58.80;;;;;;5080771;28;20464;-40
2021/03/14 01:38:59;;;;;;;14.80;13.40;;;15.30;59.70;;;;;;5071253;28;20492;-43
2021/03/14 01:41:29;;;;;;;14.10;13.00;;;15.30;60.70;;;;;;5071821;28;20448;-44
2021/03/14 01:44:00;;;;;;;16.67;15.07;;;15.30;61.40;;;;;;5071972;28;20436;-42
2021/03/14 01:46:30;;;;;;;15.43;14.13;;;15.10;61.80;;;;;;5067145;28;20456;-44
2021/03/14 01:49:16;;;;;;;15.17;13.87;;;15.10;61.60;;;;;;5074808;28;20445;-41
2021/03/14 01:51:47;;;;;;;16.00;14.50;;;15.10;62.60;;;;;;5062712;28;20584;-42
2021/03/14 01:54:18;;;;;;;15.07;13.57;;;15.00;63.60;;;;;;5063538;28;20453;-41
2021/03/14 01:56:48;;;;;;;14.50;13.00;;;14.80;65.80;;;;;;5062230;28;20541;-47
2021/03/14 01:59:18;;;;;;;18.00;16.30;;;14.70;68.50;;;;;;5081374;28;20448;-45
2021/03/14 02:01:48;;;;;;;17.20;15.60;;;14.60;66.20;;;;;;5071385;28;20460;-43
2021/03/14 02:04:19;;;;;;;17.50;15.77;;;14.60;67.10;;;;;;5076706;28;20481;-41
2021/03/14 02:06:49;;;;;;;16.77;15.13;;;14.50;70.60;;;;;;5066124;28;20523;-44
2021/03/14 02:09:20;;;;;;;18.77;16.87;;;14.40;71.70;;;;;;5080691;28;20455;-43
2021/03/14 02:11:51;;;;;;;17.60;15.80;;;14.20;71.00;;;;;;5068474;28;20476;-45
2021/03/14 02:14:22;;;;;;;18.00;16.20;;;14.10;72.70;;;;;;5076766;28;20507;-44
2021/03/14 02:16:53;;;;;;;17.10;15.53;;;14.00;77.00;;;;;;5082165;28;20515;-44
2021/03/14 02:19:42;;;;;;;18.23;15.70;;;13.80;77.50;;;;;;5063681;28;20565;-41
2021/03/14 02:22:13;;;;;;;17.93;16.30;;;13.60;81.00;;;;;;5074127;28;20458;-46
2021/03/14 02:24:47;;;;;;;18.63;16.70;;;13.50;83.70;;;;;;5079551;28;20530;-42
2021/03/14 02:27:19;;;;;;;16.80;15.30;;;13.30;86.30;;;;;;5070547;28;20440;-42
2021/03/14 02:29:49;;;;;;;17.20;15.60;;;13.20;88.60;;;;;;5073467;28;20895;-41
2021/03/14 02:32:21;;;;;;;18.27;16.53;;;13.10;90.60;;;;;;5072641;28;20470;-44
2021/03/14 02:35:01;;;;;;;18.20;16.60;;;13.00;88.90;;;;;;5077912;28;20447;-43
2021/03/14 02:37:32;;;;;;;19.33;17.43;;;12.90;87.10;;;;;;5074022;28;20462;-45
2021/03/14 02:40:04;;;;;;;18.77;16.80;;;12.90;87.50;;;;;;5062949;28;20445;-40
2021/03/14 02:42:39;;;;;;;19.23;17.33;;;12.80;92.00;;;;;;5061496;28;20460;-41
2021/03/14 02:45:11;;;;;;;18.00;16.40;;;12.70;92.60;;;;;;5063252;28;20861;-44
2021/03/14 02:47:41;;;;;;;17.93;16.03;;;12.60;94.10;;;;;;5074155;28;21001;-44
2021/03/14 02:50:14;;;;;;;21.43;19.40;;;12.50;94.30;;;;;;5070176;28;20474;-41
2021/03/14 02:52:45;;;;;;;19.77;17.93;;;12.40;92.70;;;;;;5065742;28;20459;-41
2021/03/14 02:55:19;;;;;;;22.83;20.60;;;12.40;91.50;;;;;;5067809;28;20452;-43
2021/03/14 02:57:51;;;;;;;23.10;20.80;;;12.40;91.30;;;;;;5081338;28;20455;-44
2021/03/14 03:00:24;;;;;;;25.93;23.30;;;12.40;93.20;;;;;;5085276;28;20768;-46
2021/03/14 03:02:56;;;;;;;31.27;27.87;;;12.40;92.20;;;;;;5071258;28;20498;-42
2021/03/14 03:05:27;;;;;;;33.60;29.03;;;12.30;92.20;;;;;;5080623;28;20445;-44
2021/03/14 03:07:59;;;;;;;32.47;29.30;;;12.30;92.90;;;;;;5084101;28;20469;-45
2021/03/14 03:10:38;;;;;;;32.43;29.03;;;12.30;93.00;;;;;;5067002;28;20479;-42
2021/03/14 03:13:10;;;;;;;29.53;26.63;;;12.20;93.60;;;;;;5069063;28;20448;-45
2021/03/14 03:15:42;;;;;;;28.57;25.53;;;12.00;95.90;;;;;;5068568;28;20454;-41
2021/03/14 03:18:31;;;;;;;30.97;27.70;;;11.90;98.10;;;;;;5077960;28;20443;-41
2021/03/14 03:21:02;;;;;;;34.33;28.47;;;11.70;99.00;;;;;;5067434;28;20471;-43
2021/03/14 03:23:32;;;;;;;30.00;26.90;;;11.60;99.90;;;;;;5076984;28;20474;-39
2021/03/14 03:26:02;;;;;;;28.67;25.73;;;11.50;99.90;;;;;;5068986;28;20463;-39
2021/03/14 03:28:34;;;;;;;30.97;26.53;;;11.40;99.90;;;;;;5072442;28;20457;-39
2021/03/14 03:31:04;;;;;;;31.90;28.52;;;11.40;99.90;;;;;;5082084;28;20486;-43
2021/03/14 03:33:35;;;;;;;31.47;28.23;;;11.40;99.90;;;;;;5081145;28;20208;-41
2021/03/14 03:36:08;;;;;;;33.13;29.42;;;11.30;99.90;;;;;;5074309;28;20444;-42
2021/03/14 03:38:38;;;;;;;38.60;33.57;;;11.20;99.90;;;;;;5081734;28;20199;-43
2021/03/14 03:41:08;;;;;;;40.17;35.73;;;11.10;99.90;;;;;;5080260;28;20491;-41
2021/03/14 03:43:44;;;;;;;46.13;37.40;;;11.00;99.90;;;;;;5072223;28;20499;-44
2021/03/14 03:46:16;;;;;;;40.03;35.63;;;10.90;99.90;;;;;;5077203;28;20453;-41
2021/03/14 03:48:48;;;;;;;44.97;35.57;;;10.90;99.90;;;;;;5072559;28;20219;-41
2021/03/14 03:51:24;;;;;;;39.63;34.90;;;10.90;99.90;;;;;;5069126;28;20485;-41
2021/03/14 03:53:55;;;;;;;41.35;36.92;;;10.70;99.90;;;;;;5070322;28;20440;-45
2021/03/14 03:56:26;;;;;;;38.80;34.80;;;10.70;99.90;;;;;;5073323;28;20272;-43
2021/03/14 03:59:00;;;;;;;40.00;35.80;;;10.70;99.90;;;;;;5065094;28;20301;-40
2021/03/14 04:01:31;;;;;;;43.20;37.15;;;10.60;99.90;;;;;;5077807;28;20252;-42
2021/03/14 04:04:05;;;;;;;40.33;36.13;;;10.60;99.90;;;;;;5064165;28;20204;-40
2021/03/14 04:06:35;;;;;;;41.15;35.17;;;10.50;99.90;;;;;;5075965;28;20231;-40
2021/03/14 04:09:09;;;;;;;40.10;35.57;;;10.40;99.90;;;;;;5077252;28;20193;-41
2021/03/14 04:11:42;;;;;;;40.42;36.33;;;10.30;99.90;;;;;;5074512;28;20488;-41
2021/03/14 04:14:14;;;;;;;42.45;38.03;;;10.30;99.90;;;;;;5083023;28;20214;-42
2021/03/14 04:16:45;;;;;;;42.63;38.13;;;10.20;99.90;;;;;;5083386;28;20267;-42
2021/03/14 04:19:20;;;;;;;44.60;39.80;;;10.20;99.90;;;;;;5081730;28;20235;-42
2021/03/14 04:21:53;;;;;;;46.22;41.60;;;10.10;99.90;;;;;;5083617;28;20344;-44
2021/03/14 04:24:25;;;;;;;46.28;41.55;;;10.00;99.90;;;;;;5076757;28;20211;-45
2021/03/14 04:26:55;;;;;;;46.15;41.47;;;9.90;99.90;;;;;;5075783;28;20212;-44
2021/03/14 04:29:29;;;;;;;45.28;40.67;;;9.90;99.90;;;;;;5075058;28;20315;-42
2021/03/14 04:32:00;;;;;;;46.15;41.55;;;9.80;99.90;;;;;;5082227;28;20229;-43
2021/03/14 04:34:31;;;;;;;45.60;40.80;;;9.80;99.90;;;;;;5071000;28;20282;-44
2021/03/14 04:37:01;;;;;;;44.35;39.95;;;9.70;99.90;;;;;;5073416;28;20541;-41
2021/03/14 04:39:32;;;;;;;46.70;41.83;;;9.60;99.90;;;;;;5077349;28;20275;-42
2021/03/14 04:42:02;;;;;;;47.33;40.20;;;9.60;99.90;;;;;;5083250;28;20234;-41
2021/03/14 04:44:34;;;;;;;46.97;42.03;;;9.50;99.90;;;;;;5074935;28;20218;-42
2021/03/14 04:47:05;;;;;;;47.60;42.80;;;9.50;99.90;;;;;;5074760;28;20664;-42
2021/03/14 04:49:35;;;;;;;46.30;41.42;;;9.60;99.90;;;;;;5069325;28;20208;-40
2021/03/14 04:52:06;;;;;;;46.00;41.33;;;9.60;99.90;;;;;;5082391;28;20252;-41
2021/03/14 04:54:38;;;;;;;44.95;40.35;;;9.60;99.90;;;;;;5080294;28;20300;-40
2021/03/14 04:57:09;;;;;;;43.67;39.20;;;9.60;99.90;;;;;;5081739;28;20209;-40
2021/03/14 04:59:43;;;;;;;43.25;38.47;;;9.50;99.90;;;;;;5081846;28;20241;-40
2021/03/14 05:02:13;;;;;;;46.35;40.30;;;9.50;99.90;;;;;;5074205;28;20645;-42
2021/03/14 05:04:45;;;;;;;42.85;38.40;;;9.40;99.90;;;;;;5079065;28;20688;-43
2021/03/14 05:07:16;;;;;;;47.08;42.50;;;9.40;99.90;;;;;;5081706;28;20203;-41
2021/03/14 05:09:46;;;;;;;46.35;41.55;;;9.30;99.90;;;;;;5072125;28;20213;-44
2021/03/14 05:12:18;;;;;;;45.95;41.33;;;9.20;99.90;;;;;;5078994;28;20251;-42
2021/03/14 05:14:50;;;;;;;46.08;41.10;;;9.10;99.90;;;;;;5076949;28;20206;-42
2021/03/14 05:17:22;;;;;;;46.25;41.28;;;9.10;99.90;;;;;;5082590;28;20245;-43
2021/03/14 05:19:53;;;;;;;51.63;43.53;;;9.00;99.90;;;;;;5080387;28;20242;-47
2021/03/14 05:22:24;;;;;;;48.92;43.95;;;9.00;99.90;;;;;;5074636;28;20298;-40
2021/03/14 05:24:54;;;;;;;48.13;42.72;;;9.00;99.90;;;;;;5081803;28;20204;-42
2021/03/14 05:27:26;;;;;;;46.97;42.17;;;9.00;99.90;;;;;;5066376;28;20233;-41
2021/03/14 05:29:57;;;;;;;49.55;43.83;;;9.00;99.90;;;;;;5083597;28;20209;-41
2021/03/14 05:32:27;;;;;;;48.33;42.22;;;8.90;99.90;;;;;;5076121;28;20233;-41
2021/03/14 05:34:58;;;;;;;49.97;44.45;;;8.80;99.90;;;;;;5067941;28;20236;-42
2021/03/14 05:37:28;;;;;;;47.97;42.95;;;8.80;99.90;;;;;;5073366;28;20205;-41
2021/03/14 05:39:58;;;;;;;48.38;42.95;;;8.70;99.90;;;;;;5065078;28;20206;-43
2021/03/14 05:42:29;;;;;;;49.22;44.03;;;8.60;99.90;;;;;;5076017;28;20268;-41
2021/03/14 05:45:01;;;;;;;52.90;47.47;;;8.60;99.90;;;;;;5081247;28;20235;-44
2021/03/14 05:47:32;;;;;;;57.65;51.55;;;8.60;99.90;;;;;;5067469;28;20253;-42
2021/03/14 05:50:03;;;;;;;58.67;52.75;;;8.60;99.90;;;;;;5082891;28;20203;-43
2021/03/14 05:52:33;;;;;;;61.35;55.25;;;8.50;99.90;;;;;;5073586;28;20221;-42
2021/03/14 05:55:04;;;;;;;61.85;55.65;;;8.50;99.90;;;;;;5076455;28;20201;-46
2021/03/14 05:57:34;;;;;;;62.50;55.80;;;8.50;99.90;;;;;;5072722;28;20221;-42
2021/03/14 06:00:07;;;;;;;64.50;57.47;;;8.50;99.90;;;;;;5082832;28;20209;-46
2021/03/14 06:02:41;;;;;;;61.67;55.03;;;8.50;99.90;;;;;;5081596;28;20341;-46
2021/03/14 06:05:14;;;;;;;61.90;54.97;;;8.50;99.90;;;;;;5076957;28;20864;-44
2021/03/14 06:07:44;;;;;;;60.15;54.25;;;8.70;99.90;;;;;;5081006;28;20208;-46
2021/03/14 06:10:17;;;;;;;57.33;51.38;;;8.80;99.90;;;;;;5079451;28;20206;-44
2021/03/14 06:12:47;;;;;;;54.25;48.50;;;8.80;99.90;;;;;;5076850;28;20682;-44
2021/03/14 06:15:19;;;;;;;53.72;47.95;;;8.80;99.90;;;;;;5082567;28;20375;-43
2021/03/14 06:17:50;;;;;;;50.25;44.90;;;8.90;99.90;;;;;;5073604;28;20216;-47
2021/03/14 06:20:41;;;;;;;48.67;43.78;;;9.00;99.90;;;;;;5079746;28;20233;-40
2021/03/14 06:23:13;;;;;;;43.72;38.92;;;9.10;99.90;;;;;;5069452;28;20198;-45
2021/03/14 06:25:44;;;;;;;42.00;37.70;;;9.10;99.90;;;;;;5082771;28;20206;-49
2021/03/14 06:28:16;;;;;;;43.78;39.53;;;9.20;99.90;;;;;;5081691;28;20603;-46
2021/03/14 06:30:47;;;;;;;41.05;36.70;;;9.20;99.90;;;;;;5076565;28;20206;-46
2021/03/14 06:33:18;;;;;;;41.40;37.30;;;9.20;99.90;;;;;;5075994;28;20204;-45
2021/03/14 06:35:51;;;;;;;40.17;35.95;;;9.30;99.90;;;;;;5086119;28;20205;-46
2021/03/14 06:38:27;;;;;;;39.88;34.35;;;9.40;99.90;;;;;;5078379;28;20201;-47
2021/03/14 06:41:12;;;;;;;37.65;33.63;;;9.50;99.90;;;;;;5076995;28;20213;-41
2021/03/14 06:43:46;;;;;;;36.25;32.78;;;9.50;99.90;;;;;;5078968;28;20218;-42
2021/03/14 06:46:25;;;;;;;36.08;32.30;;;9.50;99.90;;;;;;5085117;28;20209;-42
2021/03/14 06:49:13;;;;;;;35.85;32.22;;;9.50;99.90;;;;;;5085212;28;20282;-44
2021/03/14 06:51:45;;;;;;;34.45;30.80;;;9.50;99.90;;;;;;5071294;28;20229;-44
2021/03/14 06:54:36;;;;;;;31.02;27.90;;;9.50;99.90;;;;;;5081944;28;20206;-45
2021/03/14 06:57:17;;;;;;;29.95;26.95;;;9.60;99.90;;;;;;5083214;28;20245;-43
2021/03/14 06:59:49;;;;;;;25.80;23.10;;;9.60;99.90;;;;;;5086099;28;20201;-42
2021/03/14 07:02:22;;;;;;;25.40;22.75;;;9.60;99.90;;;;;;5072887;28;20206;-42
2021/03/14 07:04:54;;;;;;;25.38;22.38;;;9.60;99.90;;;;;;5080679;28;20236;-41
2021/03/14 07:07:26;;;;;;;24.38;21.75;;;9.60;99.90;;;;;;5085155;28;20583;-43
2021/03/14 07:10:01;;;;;;;22.88;20.13;;;9.60;99.90;;;;;;5085652;28;20201;-46
2021/03/14 07:12:32;;;;;;;21.77;19.70;;;9.50;99.90;;;;;;5084619;28;20282;-43
2021/03/14 07:15:14;;;;;;;19.90;18.10;;;9.40;99.90;;;;;;5077956;28;20198;-41
2021/03/14 07:17:51;;;;;;;18.25;16.42;;;9.30;99.90;;;;;;5085746;28;20224;-45
2021/03/14 07:20:24;;;;;;;19.05;17.05;;;9.20;99.90;;;;;;5081876;28;20296;-41
2021/03/14 07:22:59;;;;;;;16.42;14.93;;;9.20;99.90;;;;;;5080095;28;20209;-46
2021/03/14 07:25:29;;;;;;;16.90;13.63;;;9.10;99.90;;;;;;5079010;28;20215;-46
2021/03/14 07:28:00;;;;;;;16.60;14.77;;;9.10;99.90;;;;;;5084358;28;20252;-43
2021/03/14 07:30:31;;;;;;;13.95;12.65;;;9.10;99.90;;;;;;5073067;28;20198;-44
2021/03/14 07:33:02;;;;;;;14.23;12.70;;;9.00;99.90;;;;;;5084818;28;20224;-43
2021/03/14 07:35:33;;;;;;;12.77;11.57;;;8.90;99.90;;;;;;5084645;28;20235;-44
2021/03/14 07:38:03;;;;;;;15.13;11.82;;;8.90;99.90;;;;;;5084853;28;20259;-44
2021/03/14 07:40:33;;;;;;;11.68;10.43;;;8.80;99.90;;;;;;5085413;28;20205;-42
2021/03/14 07:43:04;;;;;;;10.95;9.95;;;8.80;99.90;;;;;;5084314;28;20201;-46
2021/03/14 07:45:34;;;;;;;11.50;10.40;;;8.70;99.90;;;;;;5083950;28;20227;-45
2021/03/14 07:48:09;;;;;;;11.23;9.80;;;8.60;99.90;;;;;;5080775;28;20202;-44
2021/03/14 07:50:45;;;;;;;9.07;8.18;;;8.60;99.90;;;;;;5070754;28;20210;-45
2021/03/14 07:53:17;;;;;;;10.07;9.02;;;8.50;99.90;;;;;;5069753;28;20210;-43
2021/03/14 07:55:53;;;;;;;8.45;7.65;;;8.50;99.90;;;;;;5084685;28;20212;-45
2021/03/14 07:58:24;;;;;;;9.07;7.75;;;8.50;99.90;;;;;;5080711;28;20205;-43
2021/03/14 08:00:55;;;;;;;10.20;9.27;;;8.50;99.90;;;;;;5080643;28;20246;-41
2021/03/14 08:03:38;;;;;;;9.45;8.50;;;8.60;99.90;;;;;;5074368;28;20193;-43
2021/03/14 08:06:08;;;;;;;9.05;8.15;;;8.50;99.90;;;;;;5074033;28;20692;-42
2021/03/14 08:08:48;;;;;;;8.77;7.80;;;8.60;99.90;;;;;;5073562;28;20213;-43
2021/03/14 08:11:28;;;;;;;8.18;7.38;;;8.50;99.90;;;;;;5077240;28;20598;-43
2021/03/14 08:13:58;;;;;;;7.90;7.20;;;8.50;99.90;;;;;;5084779;28;20209;-42
2021/03/14 08:16:28;;;;;;;7.63;6.90;;;8.50;99.90;;;;;;5078237;28;20237;-45
2021/03/14 08:19:14;;;;;;;6.25;5.72;;;8.50;99.90;;;;;;5068191;28;20257;-43
2021/03/14 08:21:44;;;;;;;7.38;6.20;;;8.60;99.90;;;;;;5081157;28;20197;-43
2021/03/14 08:24:16;;;;;;;6.93;6.35;;;8.60;99.90;;;;;;5081292;28;20554;-44
2021/03/14 08:26:46;;;;;;;8.68;6.20;;;8.50;99.90;;;;;;5083884;28;20658;-43
2021/03/14 08:29:16;;;;;;;6.28;5.78;;;8.40;99.90;;;;;;5079919;28;20232;-43
2021/03/14 08:31:48;;;;;;;9.13;6.35;;;8.40;99.90;;;;;;5082679;28;20225;-46
2021/03/14 08:34:41;;;;;;;7.85;6.05;;;8.40;99.90;;;;;;5078763;28;20228;-43
2021/03/14 08:37:23;;;;;;;6.13;5.60;;;8.30;99.90;;;;;;5082190;28;20603;-42
2021/03/14 08:40:00;;;;;;;6.85;5.97;;;8.30;99.90;;;;;;5084228;28;20266;-42
2021/03/14 08:42:54;;;;;;;7.18;5.63;;;8.30;99.90;;;;;;5074043;28;20288;-43
2021/03/14 08:45:25;;;;;;;7.57;5.88;;;8.30;99.90;;;;;;5083775;28;20236;-45
2021/03/14 08:47:55;;;;;;;7.85;7.15;;;8.20;99.90;;;;;;5072255;28;20222;-44
2021/03/14 08:50:27;;;;;;;9.60;8.60;;;8.30;99.90;;;;;;5070804;28;20273;-41
2021/03/14 08:52:59;;;;;;;10.50;9.50;;;8.30;99.90;;;;;;5067802;28;20290;-42
2021/03/14 08:55:31;;;;;;;11.18;9.98;;;8.20;99.90;;;;;;5078599;28;20209;-44
2021/03/14 08:58:14;;;;;;;10.98;9.98;;;8.20;99.90;;;;;;5081753;28;20557;-44
2021/03/14 09:00:44;;;;;;;12.00;10.75;;;8.20;99.90;;;;;;5074807;28;20209;-43
2021/03/14 09:03:14;;;;;;;11.38;10.20;;;8.10;99.90;;;;;;5077230;28;20271;-45
2021/03/14 09:06:27;;;;;;;9.85;8.95;;;8.20;99.90;;;;;;5073250;28;20219;-42
2021/03/14 09:08:58;;;;;;;12.30;8.82;;;8.10;99.90;;;;;;5069719;28;20217;-42
2021/03/14 09:11:42;;;;;;;11.73;8.95;;;8.10;99.90;;;;;;5076929;28;20885;-42
2021/03/14 09:14:47;;;;;;;12.05;9.57;;;8.20;99.90;;;;;;5079775;28;20645;-41
2021/03/14 09:17:19;;;;;;;9.77;8.85;;;8.10;99.90;;;;;;5078710;28;20208;-44
2021/03/14 09:19:51;;;;;;;10.15;9.13;;;8.00;99.90;;;;;;5070087;28;20282;-43
2021/03/14 09:22:25;;;;;;;16.23;9.95;;;8.00;99.90;;;;;;5075170;28;20549;-43
2021/03/14 09:24:58;;;;;;;13.38;9.57;;;7.90;99.90;;;;;;5080193;28;20266;-41
2021/03/14 09:27:30;;;;;;;10.07;8.82;;;7.80;99.90;;;;;;5065840;28;20642;-42
2021/03/14 09:30:02;;;;;;;10.23;8.75;;;7.70;99.90;;;;;;5071903;28;20252;-41
2021/03/14 09:32:34;;;;;;;10.95;8.27;;;7.70;99.90;;;;;;5077519;28;20225;-41
2021/03/14 09:35:22;;;;;;;10.05;7.82;;;7.70;99.90;;;;;;5080443;28;20193;-42
2021/03/14 09:37:59;;;;;;;11.30;7.90;;;7.60;99.90;;;;;;5083040;28;20205;-40
2021/03/14 09:40:32;;;;;;;7.80;7.10;;;7.60;99.90;;;;;;5083151;28;20231;-42
2021/03/14 09:43:16;;;;;;;8.65;7.22;;;7.60;99.90;;;;;;5070770;28;20210;-44
2021/03/14 09:45:48;;;;;;;8.23;7.38;;;7.60;99.90;;;;;;5080208;28;20216;-46
2021/03/14 09:48:20;;;;;;;7.10;6.43;;;7.70;99.90;;;;;;5068468;28;20198;-45
2021/03/14 09:50:52;;;;;;;8.80;7.80;;;7.70;99.90;;;;;;5076891;28;20243;-44
2021/03/14 09:53:26;;;;;;;10.55;7.85;;;7.60;99.90;;;;;;5072787;28;20225;-45
2021/03/14 09:55:58;;;;;;;8.32;7.47;;;7.60;99.90;;;;;;5082846;28;20276;-43
2021/03/14 09:58:30;;;;;;;7.90;7.10;;;7.60;99.90;;;;;;5081809;28;20205;-47
2021/03/14 10:01:01;;;;;;;9.23;8.25;;;7.60;99.90;;;;;;5081865;28;20205;-41
2021/03/14 10:03:32;;;;;;;8.15;7.35;;;7.60;99.90;;;;;;5076867;28;20351;-42
2021/03/14 10:06:03;;;;;;;9.63;7.90;;;7.60;99.90;;;;;;5071055;28;20219;-41
2021/03/14 10:08:36;;;;;;;9.30;8.07;;;7.70;99.90;;;;;;5076674;28;20347;-42
2021/03/14 10:11:10;;;;;;;13.18;9.43;;;7.70;99.90;;;;;;5068448;28;20209;-47
2021/03/14 10:13:42;;;;;;;8.70;7.68;;;7.70;99.90;;;;;;5082081;28;20201;-42
2021/03/14 10:16:14;;;;;;;8.07;7.35;;;7.60;99.90;;;;;;5081908;28;20231;-43
2021/03/14 10:18:45;;;;;;;11.38;8.88;;;7.60;99.90;;;;;;5082130;28;20237;-42
2021/03/14 10:21:18;;;;;;;9.38;8.13;;;7.60;99.90;;;;;;5080949;28;20250;-45
2021/03/14 10:23:50;;;;;;;8.55;7.65;;;7.60;99.90;;;;;;5081730;28;20216;-44
2021/03/14 10:26:20;;;;;;;8.05;7.20;;;7.70;99.90;;;;;;5081292;28;20273;-39
2021/03/14 10:28:50;;;;;;;8.95;8.10;;;7.80;99.90;;;;;;5081828;28;20209;-40
2021/03/14 10:31:22;;;;;;;9.50;8.50;;;7.80;99.90;;;;;;5081571;28;20209;-40
2021/03/14 10:33:52;;;;;;;12.18;8.50;;;7.80;99.90;;;;;;5076535;28;20205;-40
2021/03/14 10:36:22;;;;;;;8.98;8.05;;;7.90;99.90;;;;;;5073563;28;20197;-40
2021/03/14 10:38:53;;;;;;;9.43;8.60;;;7.80;99.90;;;;;;5081822;28;20219;-40
2021/03/14 10:41:25;;;;;;;9.55;7.90;;;7.80;99.90;;;;;;5076410;28;20262;-40
2021/03/14 10:43:56;;;;;;;8.93;8.05;;;7.70;99.90;;;;;;5082075;28;20220;-40
2021/03/14 10:46:40;;;;;;;10.15;8.73;;;7.80;99.90;;;;;;5080435;28;20231;-41
2021/03/14 10:49:12;;;;;;;8.98;7.78;;;7.90;99.90;;;;;;5070818;28;20236;-40
2021/03/14 10:51:43;;;;;;;8.27;7.43;;;7.90;99.90;;;;;;5080937;28;20549;-40
2021/03/14 10:54:16;;;;;;;9.32;8.30;;;7.90;99.90;;;;;;5078021;28;20197;-41
2021/03/14 10:56:47;;;;;;;10.88;8.50;;;7.90;99.90;;;;;;5081242;28;20210;-40
2021/03/14 10:59:27;;;;;;;10.80;8.60;;;7.90;99.90;;;;;;5081757;28;20201;-41
2021/03/14 11:02:13;;;;;;;8.80;7.38;;;7.90;99.90;;;;;;5081659;28;20209;-40
2021/03/14 11:04:53;;;;;;;9.57;8.30;;;7.90;99.90;;;;;;5074925;28;20297;-40
2021/03/14 11:07:25;;;;;;;9.65;7.60;;;7.80;99.90;;;;;;5080892;28;20216;-41
2021/03/14 11:10:10;;;;;;;10.02;7.93;;;7.70;99.90;;;;;;5076071;28;20202;-40
2021/03/14 11:12:41;;;;;;;8.40;7.60;;;7.80;99.90;;;;;;5075415;28;20573;-40
2021/03/14 11:15:29;;;;;;;9.10;8.27;;;7.80;99.90;;;;;;5082062;28;20673;-40
2021/03/14 11:18:03;;;;;;;11.18;8.27;;;7.80;99.90;;;;;;5079628;28;20270;-40
2021/03/14 11:20:35;;;;;;;9.02;8.13;;;7.80;99.90;;;;;;5083139;28;20277;-40
2021/03/14 11:23:05;;;;;;;9.82;7.90;;;7.80;99.90;;;;;;5084991;28;20235;-40
2021/03/14 11:25:36;;;;;;;13.30;8.10;;;7.70;99.90;;;;;;5085398;28;20238;-40
2021/03/14 11:28:09;;;;;;;10.15;7.65;;;7.70;99.90;;;;;;5078938;28;20221;-40
2021/03/14 11:30:39;;;;;;;8.43;7.55;;;7.70;99.90;;;;;;5072738;28;20201;-40
2021/03/14 11:33:09;;;;;;;7.68;6.88;;;7.70;99.90;;;;;;5073552;28;20367;-40
2021/03/14 11:35:39;;;;;;;7.80;7.10;;;7.60;99.90;;;;;;5072311;28;20219;-40
2021/03/14 11:38:09;;;;;;;8.88;6.47;;;7.70;99.90;;;;;;5084866;28;20209;-40
2021/03/14 11:40:42;;;;;;;7.65;6.55;;;7.70;99.90;;;;;;5084296;28;20231;-40
2021/03/14 11:43:12;;;;;;;6.75;6.15;;;7.70;99.90;;;;;;5069822;28;20218;-40
2021/03/14 11:45:42;;;;;;;6.90;5.72;;;7.80;99.90;;;;;;5084523;28;20338;-40
2021/03/14 11:48:12;;;;;;;6.80;6.10;;;7.80;99.90;;;;;;5077892;28;20209;-40
2021/03/14 11:50:43;;;;;;;7.68;5.82;;;7.80;99.90;;;;;;5071477;28;20206;-42
2021/03/14 11:53:13;;;;;;;6.45;5.85;;;7.80;99.90;;;;;;5065039;28;20222;-43
2021/03/14 11:55:44;;;;;;;7.97;6.85;;;7.70;99.90;;;;;;5080144;28;20205;-40
2021/03/14 11:58:14;;;;;;;7.45;6.50;;;7.70;99.90;;;;;;5084093;28;20247;-41
2021/03/14 12:00:44;;;;;;;7.25;6.40;;;7.70;99.90;;;;;;5072899;28;20234;-41
2021/03/14 12:03:15;;;;;;;7.40;6.70;;;7.60;99.90;;;;;;5066752;28;20600;-40
2021/03/14 12:05:45;;;;;;;7.53;6.88;;;7.50;99.90;;;;;;5071613;28;20259;-40
2021/03/14 12:08:15;;;;;;;7.82;7.20;;;7.40;99.90;;;;;;5075897;28;20539;-40
2021/03/14 12:10:46;;;;;;;7.28;6.55;;;7.30;99.90;;;;;;5064593;28;20197;-40
2021/03/14 12:13:16;;;;;;;8.93;7.38;;;7.30;99.90;;;;;;5064175;28;20240;-40
2021/03/14 12:15:53;;;;;;;8.73;6.70;;;7.20;99.90;;;;;;5078019;28;20646;-39
2021/03/14 12:18:24;;;;;;;7.40;6.70;;;7.20;99.90;;;;;;5075516;28;20229;-39
2021/03/14 12:20:55;;;;;;;8.93;8.13;;;7.20;99.90;;;;;;5082586;28;20225;-40
2021/03/14 12:23:26;;;;;;;8.68;7.50;;;7.20;99.90;;;;;;5077118;28;20205;-40
2021/03/14 12:25:57;;;;;;;9.73;8.05;;;7.30;99.90;;;;;;5082796;28;20243;-40
2021/03/14 12:28:27;;;;;;;7.43;6.72;;;7.40;99.90;;;;;;5067111;28;20206;-40
2021/03/14 12:30:57;;;;;;;8.40;7.60;;;7.50;99.90;;;;;;5064648;28;20803;-40
2021/03/14 12:33:28;;;;;;;9.25;8.05;;;7.50;99.90;;;;;;5078783;28;20296;-40
2021/03/14 12:35:58;;;;;;;7.50;6.80;;;7.40;99.90;;;;;;5083454;28;20197;-40
2021/03/14 12:38:28;;;;;;;8.27;7.47;;;7.40;99.90;;;;;;5073495;28;20261;-40
2021/03/14 12:40:59;;;;;;;9.35;7.95;;;7.40;99.90;;;;;;5083272;28;20201;-40
2021/03/14 12:43:29;;;;;;;7.88;6.70;;;7.30;99.90;;;;;;5082893;28;20383;-39
2021/03/14 12:45:59;;;;;;;9.02;7.40;;;7.40;99.90;;;;;;5068784;28;20202;-40
2021/03/14 12:48:30;;;;;;;10.02;7.85;;;7.50;99.90;;;;;;5064035;28;20271;-40
2021/03/14 12:51:00;;;;;;;8.18;7.35;;;7.40;99.90;;;;;;5069219;28;20202;-40
2021/03/14 12:53:30;;;;;;;9.02;6.88;;;7.40;99.90;;;;;;5079944;28;20221;-40
2021/03/14 12:56:01;;;;;;;9.15;8.25;;;7.40;99.90;;;;;;5081641;28;20198;-40
2021/03/14 12:58:31;;;;;;;7.90;7.18;;;7.40;99.90;;;;;;5081853;28;20189;-40
2021/03/14 13:01:01;;;;;;;8.20;6.97;;;7.50;99.90;;;;;;5081504;28;20539;-40
2021/03/14 13:03:32;;;;;;;5.82;4.90;;;7.50;99.90;;;;;;5070653;28;20208;-40
2021/03/14 13:06:02;;;;;;;11.50;5.75;;;7.50;99.90;;;;;;5076987;28;20233;-40
2021/03/14 13:08:32;;;;;;;8.85;5.85;;;7.60;99.90;;;;;;5075110;28;20205;-40
2021/03/14 13:11:03;;;;;;;8.32;5.82;;;7.60;99.90;;;;;;5067080;28;20202;-39